sensor_id;sensor_type;location;lat;lon;timestamp;P1;durP1;ratioP1;P2;durP2;ratioP2
15938;SDS011;8068;51.322;9.450;2023-05-10T00:01:27;8.00;;;7.50;;
15938;SDS011;8068;51.322;9.450;2023-05-10T00:04:13;8.57;;;7.97;;
15938;SDS011;8068;51.322;9.450;2023-05-10T00:07:00;8.10;;;7.50;;
15938;SDS011;8068;51.322;9.450;2023-05-10T00:09:46;8.40;;;7.60;;
15938;SDS011;8068;51.322;9.450;2023-05-10T00:12:32;7.90;;;7.10;;
15938;SDS011;8068;51.322;9.450;2023-05-10T00:15:18;7.93;;;7.43;;
15938;SDS011;8068;51.322;9.450;2023-05-10T00:18:05;9.90;;;9.20;;
15938;SDS011;8068;51.322;9.450;2023-05-10T00:20:51;9.87;;;9.13;;
15938;SDS011;8068;51.322;9.450;2023-05-10T00:23:37;10.20;;;9.30;;
15938;SDS011;8068;51.322;9.450;2023-05-10T00:26:23;10.30;;;9.50;;
15938;SDS011;8068;51.322;9.450;2023-05-10T00:29:10;9.77;;;9.00;;
15938;SDS011;8068;51.322;9.450;2023-05-10T00:31:56;11.20;;;10.30;;
15938;SDS011;8068;51.322;9.450;2023-05-10T00:34:42;9.90;;;9.20;;
15938;SDS011;8068;51.322;9.450;2023-05-10T00:37:28;9.60;;;8.87;;
15938;SDS011;8068;51.322;9.450;2023-05-10T00:40:14;10.23;;;9.30;;
15938;SDS011;8068;51.322;9.450;2023-05-10T00:43:01;10.60;;;9.70;;
15938;SDS011;8068;51.322;9.450;2023-05-10T00:45:47;11.47;;;10.47;;
15938;SDS011;8068;51.322;9.450;2023-05-10T00:48:33;10.67;;;9.77;;
15938;SDS011;8068;51.322;9.450;2023-05-10T00:51:20;11.10;;;10.30;;
15938;SDS011;8068;51.322;9.450;2023-05-10T00:54:07;11.03;;;9.60;;
15938;SDS011;8068;51.322;9.450;2023-05-10T00:56:53;10.27;;;9.47;;
15938;SDS011;8068;51.322;9.450;2023-05-10T00:59:40;11.10;;;10.20;;
15938;SDS011;8068;51.322;9.450;2023-05-10T01:02:26;11.10;;;10.20;;
15938;SDS011;8068;51.322;9.450;2023-05-10T01:05:13;11.97;;;10.97;;
15938;SDS011;8068;51.322;9.450;2023-05-10T01:07:59;11.20;;;10.30;;
15938;SDS011;8068;51.322;9.450;2023-05-10T01:10:46;12.03;;;10.97;;
15938;SDS011;8068;51.322;9.450;2023-05-10T01:13:36;10.23;;;9.27;;
15938;SDS011;8068;51.322;9.450;2023-05-10T01:16:23;12.20;;;11.20;;
15938;SDS011;8068;51.322;9.450;2023-05-10T01:28:29;9.10;;;7.97;;
15938;SDS011;8068;51.322;9.450;2023-05-10T01:31:30;9.13;;;8.33;;
15938;SDS011;8068;51.322;9.450;2023-05-10T01:34:27;9.80;;;9.00;;
15938;SDS011;8068;51.322;9.450;2023-05-10T01:41:01;7.90;;;7.00;;
15938;SDS011;8068;51.322;9.450;2023-05-10T01:47:05;7.13;;;6.53;;
15938;SDS011;8068;51.322;9.450;2023-05-10T01:49:53;6.93;;;6.07;;
15938;SDS011;8068;51.322;9.450;2023-05-10T01:52:41;5.17;;;4.87;;
15938;SDS011;8068;51.322;9.450;2023-05-10T01:55:30;5.17;;;4.93;;
15938;SDS011;8068;51.322;9.450;2023-05-10T01:58:20;4.33;;;4.13;;
15938;SDS011;8068;51.322;9.450;2023-05-10T02:01:08;4.67;;;4.47;;
15938;SDS011;8068;51.322;9.450;2023-05-10T02:03:55;4.40;;;4.00;;
15938;SDS011;8068;51.322;9.450;2023-05-10T02:06:43;4.20;;;3.90;;
15938;SDS011;8068;51.322;9.450;2023-05-10T02:09:29;4.30;;;4.10;;
15938;SDS011;8068;51.322;9.450;2023-05-10T02:12:18;3.57;;;3.40;;
15938;SDS011;8068;51.322;9.450;2023-05-10T02:15:05;3.77;;;3.23;;
15938;SDS011;8068;51.322;9.450;2023-05-10T02:17:54;3.87;;;3.57;;
15938;SDS011;8068;51.322;9.450;2023-05-10T02:20:42;3.80;;;3.50;;
15938;SDS011;8068;51.322;9.450;2023-05-10T02:23:29;3.20;;;3.00;;
15938;SDS011;8068;51.322;9.450;2023-05-10T02:26:16;3.60;;;3.40;;
15938;SDS011;8068;51.322;9.450;2023-05-10T02:29:03;3.90;;;3.70;;
15938;SDS011;8068;51.322;9.450;2023-05-10T02:31:49;3.70;;;3.50;;
15938;SDS011;8068;51.322;9.450;2023-05-10T02:34:37;2.90;;;2.80;;
15938;SDS011;8068;51.322;9.450;2023-05-10T02:37:24;2.60;;;2.50;;
15938;SDS011;8068;51.322;9.450;2023-05-10T02:40:11;2.57;;;2.47;;
15938;SDS011;8068;51.322;9.450;2023-05-10T02:42:57;2.70;;;2.60;;
15938;SDS011;8068;51.322;9.450;2023-05-10T02:45:45;2.80;;;2.70;;
15938;SDS011;8068;51.322;9.450;2023-05-10T02:48:33;3.20;;;3.10;;
15938;SDS011;8068;51.322;9.450;2023-05-10T02:51:19;2.90;;;2.70;;
15938;SDS011;8068;51.322;9.450;2023-05-10T02:54:10;3.10;;;2.90;;
15938;SDS011;8068;51.322;9.450;2023-05-10T02:56:59;2.90;;;2.70;;
15938;SDS011;8068;51.322;9.450;2023-05-10T02:59:47;3.27;;;2.90;;
15938;SDS011;8068;51.322;9.450;2023-05-10T03:02:33;2.50;;;2.40;;
15938;SDS011;8068;51.322;9.450;2023-05-10T03:05:19;6.30;;;3.13;;
15938;SDS011;8068;51.322;9.450;2023-05-10T03:08:06;5.67;;;3.40;;
15938;SDS011;8068;51.322;9.450;2023-05-10T03:18:01;3.60;;;2.13;;
15938;SDS011;8068;51.322;9.450;2023-05-10T03:20:55;3.60;;;2.23;;
15938;SDS011;8068;51.322;9.450;2023-05-10T03:23:46;1.83;;;1.73;;
15938;SDS011;8068;51.322;9.450;2023-05-10T03:26:36;1.60;;;1.50;;
15938;SDS011;8068;51.322;9.450;2023-05-10T03:29:23;1.43;;;1.33;;
15938;SDS011;8068;51.322;9.450;2023-05-10T03:32:11;1.80;;;1.43;;
15938;SDS011;8068;51.322;9.450;2023-05-10T03:34:57;1.30;;;1.10;;
15938;SDS011;8068;51.322;9.450;2023-05-10T03:37:43;2.23;;;0.90;;
15938;SDS011;8068;51.322;9.450;2023-05-10T03:40:30;2.33;;;1.30;;
15938;SDS011;8068;51.322;9.450;2023-05-10T03:43:17;2.60;;;0.80;;
15938;SDS011;8068;51.322;9.450;2023-05-10T03:46:04;1.00;;;0.80;;
15938;SDS011;8068;51.322;9.450;2023-05-10T03:48:50;1.20;;;0.93;;
15938;SDS011;8068;51.322;9.450;2023-05-10T03:51:37;1.20;;;0.60;;
15938;SDS011;8068;51.322;9.450;2023-05-10T03:54:23;2.27;;;0.80;;
15938;SDS011;8068;51.322;9.450;2023-05-10T03:57:09;1.10;;;0.87;;
15938;SDS011;8068;51.322;9.450;2023-05-10T03:59:55;2.17;;;2.07;;
15938;SDS011;8068;51.322;9.450;2023-05-10T04:02:41;1.00;;;0.80;;
15938;SDS011;8068;51.322;9.450;2023-05-10T04:05:28;2.07;;;0.80;;
15938;SDS011;8068;51.322;9.450;2023-05-10T04:08:15;1.10;;;0.70;;
15938;SDS011;8068;51.322;9.450;2023-05-10T04:11:09;1.23;;;0.60;;
15938;SDS011;8068;51.322;9.450;2023-05-10T04:13:56;1.00;;;0.50;;
15938;SDS011;8068;51.322;9.450;2023-05-10T04:16:42;5.33;;;0.60;;
15938;SDS011;8068;51.322;9.450;2023-05-10T04:19:29;1.90;;;0.50;;
15938;SDS011;8068;51.322;9.450;2023-05-10T04:22:18;0.90;;;0.50;;
15938;SDS011;8068;51.322;9.450;2023-05-10T04:25:04;6.93;;;0.67;;
15938;SDS011;8068;51.322;9.450;2023-05-10T04:27:51;2.80;;;0.67;;
15938;SDS011;8068;51.322;9.450;2023-05-10T04:30:38;2.80;;;0.80;;
15938;SDS011;8068;51.322;9.450;2023-05-10T04:33:24;5.67;;;0.80;;
15938;SDS011;8068;51.322;9.450;2023-05-10T04:36:10;2.47;;;0.50;;
15938;SDS011;8068;51.322;9.450;2023-05-10T04:38:56;2.50;;;0.40;;
15938;SDS011;8068;51.322;9.450;2023-05-10T04:41:42;1.03;;;0.60;;
15938;SDS011;8068;51.322;9.450;2023-05-10T04:44:29;1.10;;;0.60;;
15938;SDS011;8068;51.322;9.450;2023-05-10T04:47:15;1.20;;;0.60;;
15938;SDS011;8068;51.322;9.450;2023-05-10T04:50:02;1.00;;;0.43;;
15938;SDS011;8068;51.322;9.450;2023-05-10T04:52:49;0.90;;;0.50;;
15938;SDS011;8068;51.322;9.450;2023-05-10T04:55:35;1.10;;;0.40;;
15938;SDS011;8068;51.322;9.450;2023-05-10T04:58:21;1.00;;;0.50;;
15938;SDS011;8068;51.322;9.450;2023-05-10T05:01:07;0.90;;;0.47;;
15938;SDS011;8068;51.322;9.450;2023-05-10T05:03:54;0.97;;;0.50;;
15938;SDS011;8068;51.322;9.450;2023-05-10T05:06:40;1.23;;;0.50;;
15938;SDS011;8068;51.322;9.450;2023-05-10T05:09:26;1.00;;;0.40;;
15938;SDS011;8068;51.322;9.450;2023-05-10T05:12:12;1.73;;;0.50;;
15938;SDS011;8068;51.322;9.450;2023-05-10T05:14:59;1.00;;;0.50;;
15938;SDS011;8068;51.322;9.450;2023-05-10T05:17:46;1.10;;;0.40;;
15938;SDS011;8068;51.322;9.450;2023-05-10T05:20:32;3.53;;;0.50;;
15938;SDS011;8068;51.322;9.450;2023-05-10T05:23:20;1.00;;;0.53;;
15938;SDS011;8068;51.322;9.450;2023-05-10T05:26:06;2.60;;;0.50;;
15938;SDS011;8068;51.322;9.450;2023-05-10T05:28:52;1.00;;;0.50;;
15938;SDS011;8068;51.322;9.450;2023-05-10T05:31:40;0.97;;;0.40;;
15938;SDS011;8068;51.322;9.450;2023-05-10T05:34:26;0.90;;;0.40;;
15938;SDS011;8068;51.322;9.450;2023-05-10T05:37:16;1.00;;;0.50;;
15938;SDS011;8068;51.322;9.450;2023-05-10T05:40:03;0.93;;;0.43;;
15938;SDS011;8068;51.322;9.450;2023-05-10T05:42:49;1.00;;;0.70;;
15938;SDS011;8068;51.322;9.450;2023-05-10T05:45:36;1.20;;;0.70;;
15938;SDS011;8068;51.322;9.450;2023-05-10T05:48:22;1.00;;;0.60;;
15938;SDS011;8068;51.322;9.450;2023-05-10T05:51:08;1.40;;;1.30;;
15938;SDS011;8068;51.322;9.450;2023-05-10T05:53:54;1.10;;;0.60;;
15938;SDS011;8068;51.322;9.450;2023-05-10T05:56:41;1.10;;;0.60;;
15938;SDS011;8068;51.322;9.450;2023-05-10T05:59:27;1.00;;;0.50;;
15938;SDS011;8068;51.322;9.450;2023-05-10T06:02:13;1.73;;;0.50;;
15938;SDS011;8068;51.322;9.450;2023-05-10T06:05:00;1.00;;;0.43;;
15938;SDS011;8068;51.322;9.450;2023-05-10T06:07:46;1.10;;;0.60;;
15938;SDS011;8068;51.322;9.450;2023-05-10T06:10:32;1.13;;;0.50;;
15938;SDS011;8068;51.322;9.450;2023-05-10T06:13:18;1.40;;;0.53;;
15938;SDS011;8068;51.322;9.450;2023-05-10T06:16:05;1.00;;;0.40;;
15938;SDS011;8068;51.322;9.450;2023-05-10T06:18:51;1.00;;;0.50;;
15938;SDS011;8068;51.322;9.450;2023-05-10T06:21:37;1.10;;;0.50;;
15938;SDS011;8068;51.322;9.450;2023-05-10T06:24:23;7.60;;;0.50;;
15938;SDS011;8068;51.322;9.450;2023-05-10T06:27:10;1.83;;;0.40;;
15938;SDS011;8068;51.322;9.450;2023-05-10T06:29:56;1.00;;;0.40;;
15938;SDS011;8068;51.322;9.450;2023-05-10T06:32:58;1.10;;;0.60;;
15938;SDS011;8068;51.322;9.450;2023-05-10T06:35:44;1.97;;;0.70;;
15938;SDS011;8068;51.322;9.450;2023-05-10T06:38:30;2.17;;;0.53;;
15938;SDS011;8068;51.322;9.450;2023-05-10T06:41:17;1.10;;;0.70;;
15938;SDS011;8068;51.322;9.450;2023-05-10T06:44:03;1.30;;;0.90;;
15938;SDS011;8068;51.322;9.450;2023-05-10T06:46:49;1.10;;;0.60;;
15938;SDS011;8068;51.322;9.450;2023-05-10T06:49:35;1.20;;;0.50;;
15938;SDS011;8068;51.322;9.450;2023-05-10T06:52:22;1.10;;;0.60;;
15938;SDS011;8068;51.322;9.450;2023-05-10T06:55:09;1.47;;;0.50;;
15938;SDS011;8068;51.322;9.450;2023-05-10T06:57:55;1.97;;;0.50;;
15938;SDS011;8068;51.322;9.450;2023-05-10T07:00:41;0.97;;;0.40;;
15938;SDS011;8068;51.322;9.450;2023-05-10T07:03:29;1.00;;;0.40;;
15938;SDS011;8068;51.322;9.450;2023-05-10T07:06:15;1.00;;;0.40;;
15938;SDS011;8068;51.322;9.450;2023-05-10T07:09:18;1.00;;;0.60;;
15938;SDS011;8068;51.322;9.450;2023-05-10T07:12:04;1.10;;;0.40;;
15938;SDS011;8068;51.322;9.450;2023-05-10T07:14:50;1.00;;;0.40;;
15938;SDS011;8068;51.322;9.450;2023-05-10T07:17:36;4.80;;;0.40;;
15938;SDS011;8068;51.322;9.450;2023-05-10T07:20:23;2.33;;;0.60;;
15938;SDS011;8068;51.322;9.450;2023-05-10T07:23:09;1.10;;;0.40;;
15938;SDS011;8068;51.322;9.450;2023-05-10T07:25:55;0.97;;;0.33;;
15938;SDS011;8068;51.322;9.450;2023-05-10T07:28:43;0.90;;;0.40;;
15938;SDS011;8068;51.322;9.450;2023-05-10T07:31:29;1.00;;;0.50;;
15938;SDS011;8068;51.322;9.450;2023-05-10T07:34:15;1.00;;;0.30;;
15938;SDS011;8068;51.322;9.450;2023-05-10T07:37:01;2.00;;;0.60;;
15938;SDS011;8068;51.322;9.450;2023-05-10T07:39:48;1.67;;;0.60;;
15938;SDS011;8068;51.322;9.450;2023-05-10T07:42:34;1.10;;;0.50;;
15938;SDS011;8068;51.322;9.450;2023-05-10T07:45:20;3.67;;;0.40;;
15938;SDS011;8068;51.322;9.450;2023-05-10T07:48:06;2.30;;;0.50;;
15938;SDS011;8068;51.322;9.450;2023-05-10T07:50:52;1.30;;;0.60;;
15938;SDS011;8068;51.322;9.450;2023-05-10T07:53:38;1.40;;;0.50;;
15938;SDS011;8068;51.322;9.450;2023-05-10T07:56:26;1.10;;;0.50;;
15938;SDS011;8068;51.322;9.450;2023-05-10T07:59:15;1.00;;;0.50;;
15938;SDS011;8068;51.322;9.450;2023-05-10T08:02:02;1.43;;;0.50;;
15938;SDS011;8068;51.322;9.450;2023-05-10T08:04:48;1.87;;;0.40;;
15938;SDS011;8068;51.322;9.450;2023-05-10T08:07:35;1.00;;;0.50;;
15938;SDS011;8068;51.322;9.450;2023-05-10T08:10:21;1.47;;;0.50;;
15938;SDS011;8068;51.322;9.450;2023-05-10T08:13:07;0.97;;;0.40;;
15938;SDS011;8068;51.322;9.450;2023-05-10T08:15:53;2.97;;;0.70;;
15938;SDS011;8068;51.322;9.450;2023-05-10T08:18:40;1.00;;;0.50;;
15938;SDS011;8068;51.322;9.450;2023-05-10T08:21:26;0.90;;;0.40;;
15938;SDS011;8068;51.322;9.450;2023-05-10T08:24:12;1.10;;;0.60;;
15938;SDS011;8068;51.322;9.450;2023-05-10T08:26:58;2.33;;;0.80;;
15938;SDS011;8068;51.322;9.450;2023-05-10T08:29:44;1.10;;;0.60;;
15938;SDS011;8068;51.322;9.450;2023-05-10T08:32:36;1.00;;;0.50;;
15938;SDS011;8068;51.322;9.450;2023-05-10T08:35:23;1.20;;;0.70;;
15938;SDS011;8068;51.322;9.450;2023-05-10T08:38:10;1.67;;;0.63;;
15938;SDS011;8068;51.322;9.450;2023-05-10T08:40:56;1.07;;;0.67;;
15938;SDS011;8068;51.322;9.450;2023-05-10T08:43:43;1.87;;;0.80;;
15938;SDS011;8068;51.322;9.450;2023-05-10T08:46:33;1.40;;;0.80;;
15938;SDS011;8068;51.322;9.450;2023-05-10T08:49:20;1.83;;;1.00;;
15938;SDS011;8068;51.322;9.450;2023-05-10T08:52:07;2.00;;;1.27;;
15938;SDS011;8068;51.322;9.450;2023-05-10T08:54:54;3.03;;;1.13;;
15938;SDS011;8068;51.322;9.450;2023-05-10T08:57:40;2.83;;;1.40;;
15938;SDS011;8068;51.322;9.450;2023-05-10T09:00:26;2.70;;;1.20;;
15938;SDS011;8068;51.322;9.450;2023-05-10T09:03:14;1.73;;;1.30;;
15938;SDS011;8068;51.322;9.450;2023-05-10T09:06:00;1.43;;;1.00;;
15938;SDS011;8068;51.322;9.450;2023-05-10T09:08:47;1.50;;;1.40;;
15938;SDS011;8068;51.322;9.450;2023-05-10T09:11:33;3.00;;;1.37;;
15938;SDS011;8068;51.322;9.450;2023-05-10T09:14:19;1.30;;;1.20;;
15938;SDS011;8068;51.322;9.450;2023-05-10T09:17:06;1.80;;;1.70;;
15938;SDS011;8068;51.322;9.450;2023-05-10T09:20:02;1.53;;;1.43;;
15938;SDS011;8068;51.322;9.450;2023-05-10T09:22:49;1.70;;;1.60;;
15938;SDS011;8068;51.322;9.450;2023-05-10T09:25:36;1.50;;;1.40;;
15938;SDS011;8068;51.322;9.450;2023-05-10T09:28:24;1.67;;;1.57;;
15938;SDS011;8068;51.322;9.450;2023-05-10T09:31:10;2.03;;;1.70;;
15938;SDS011;8068;51.322;9.450;2023-05-10T09:33:56;1.63;;;1.53;;
15938;SDS011;8068;51.322;9.450;2023-05-10T09:36:52;1.50;;;1.40;;
15938;SDS011;8068;51.322;9.450;2023-05-10T09:39:42;1.60;;;1.20;;
15938;SDS011;8068;51.322;9.450;2023-05-10T09:42:28;2.13;;;1.43;;
15938;SDS011;8068;51.322;9.450;2023-05-10T09:45:15;1.90;;;1.60;;
15938;SDS011;8068;51.322;9.450;2023-05-10T09:48:02;6.03;;;1.37;;
15938;SDS011;8068;51.322;9.450;2023-05-10T09:50:55;2.10;;;1.30;;
15938;SDS011;8068;51.322;9.450;2023-05-10T09:53:43;1.50;;;1.40;;
15938;SDS011;8068;51.322;9.450;2023-05-10T09:56:35;1.37;;;1.03;;
15938;SDS011;8068;51.322;9.450;2023-05-10T09:59:25;2.77;;;1.07;;
15938;SDS011;8068;51.322;9.450;2023-05-10T10:02:12;1.33;;;1.23;;
15938;SDS011;8068;51.322;9.450;2023-05-10T10:05:02;1.63;;;1.37;;
15938;SDS011;8068;51.322;9.450;2023-05-10T10:07:49;1.87;;;1.37;;
15938;SDS011;8068;51.322;9.450;2023-05-10T10:10:36;2.13;;;1.30;;
15938;SDS011;8068;51.322;9.450;2023-05-10T10:13:22;1.60;;;1.50;;
15938;SDS011;8068;51.322;9.450;2023-05-10T10:16:08;1.50;;;1.40;;
15938;SDS011;8068;51.322;9.450;2023-05-10T10:18:55;3.63;;;1.73;;
15938;SDS011;8068;51.322;9.450;2023-05-10T10:21:42;2.70;;;1.53;;
15938;SDS011;8068;51.322;9.450;2023-05-10T10:24:28;2.37;;;1.63;;
15938;SDS011;8068;51.322;9.450;2023-05-10T10:27:19;4.70;;;2.37;;
15938;SDS011;8068;51.322;9.450;2023-05-10T10:30:43;2.47;;;2.37;;
15938;SDS011;8068;51.322;9.450;2023-05-10T10:33:36;3.00;;;2.80;;
15938;SDS011;8068;51.322;9.450;2023-05-10T10:36:45;2.20;;;2.07;;
15938;SDS011;8068;51.322;9.450;2023-05-10T10:39:32;2.50;;;2.40;;
15938;SDS011;8068;51.322;9.450;2023-05-10T10:45:29;2.53;;;2.43;;
15938;SDS011;8068;51.322;9.450;2023-05-10T10:48:19;2.87;;;2.37;;
15938;SDS011;8068;51.322;9.450;2023-05-10T10:51:06;2.80;;;2.70;;
15938;SDS011;8068;51.322;9.450;2023-05-10T10:53:52;4.13;;;2.80;;
15938;SDS011;8068;51.322;9.450;2023-05-10T10:56:39;5.87;;;2.90;;
15938;SDS011;8068;51.322;9.450;2023-05-10T10:59:29;3.67;;;3.37;;
15938;SDS011;8068;51.322;9.450;2023-05-10T11:02:34;3.60;;;3.40;;
15938;SDS011;8068;51.322;9.450;2023-05-10T11:08:27;3.37;;;3.17;;
15938;SDS011;8068;51.322;9.450;2023-05-10T11:11:15;3.40;;;3.27;;
15938;SDS011;8068;51.322;9.450;2023-05-10T11:14:05;3.40;;;3.10;;
15938;SDS011;8068;51.322;9.450;2023-05-10T11:16:52;3.47;;;3.27;;
15938;SDS011;8068;51.322;9.450;2023-05-10T11:19:53;3.73;;;3.53;;
15938;SDS011;8068;51.322;9.450;2023-05-10T11:22:55;3.70;;;3.40;;
15938;SDS011;8068;51.322;9.450;2023-05-10T11:25:42;3.23;;;3.03;;
15938;SDS011;8068;51.322;9.450;2023-05-10T11:28:29;2.97;;;2.87;;
15938;SDS011;8068;51.322;9.450;2023-05-10T11:31:16;3.30;;;3.20;;
15938;SDS011;8068;51.322;9.450;2023-05-10T11:34:03;5.40;;;3.53;;
15938;SDS011;8068;51.322;9.450;2023-05-10T11:36:55;6.47;;;3.53;;
15938;SDS011;8068;51.322;9.450;2023-05-10T11:39:45;3.23;;;3.07;;
15938;SDS011;8068;51.322;9.450;2023-05-10T11:42:32;3.43;;;3.23;;
15938;SDS011;8068;51.322;9.450;2023-05-10T11:45:19;3.20;;;3.00;;
15938;SDS011;8068;51.322;9.450;2023-05-10T11:48:07;3.50;;;3.27;;
15938;SDS011;8068;51.322;9.450;2023-05-10T11:50:54;3.33;;;3.10;;
15938;SDS011;8068;51.322;9.450;2023-05-10T11:53:42;3.40;;;3.13;;
15938;SDS011;8068;51.322;9.450;2023-05-10T11:56:28;6.60;;;3.10;;
15938;SDS011;8068;51.322;9.450;2023-05-10T11:59:15;3.13;;;3.03;;
15938;SDS011;8068;51.322;9.450;2023-05-10T12:02:01;4.70;;;2.90;;
15938;SDS011;8068;51.322;9.450;2023-05-10T12:04:47;3.20;;;2.90;;
15938;SDS011;8068;51.322;9.450;2023-05-10T12:07:34;3.00;;;2.90;;
15938;SDS011;8068;51.322;9.450;2023-05-10T12:10:25;3.20;;;3.00;;
15938;SDS011;8068;51.322;9.450;2023-05-10T12:13:12;3.20;;;3.10;;
15938;SDS011;8068;51.322;9.450;2023-05-10T12:16:00;3.87;;;3.40;;
15938;SDS011;8068;51.322;9.450;2023-05-10T12:18:59;4.07;;;3.77;;
15938;SDS011;8068;51.322;9.450;2023-05-10T12:21:46;3.63;;;3.33;;
15938;SDS011;8068;51.322;9.450;2023-05-10T12:24:36;3.23;;;2.93;;
15938;SDS011;8068;51.322;9.450;2023-05-10T12:27:23;3.03;;;2.83;;
15938;SDS011;8068;51.322;9.450;2023-05-10T12:30:10;2.87;;;2.77;;
15938;SDS011;8068;51.322;9.450;2023-05-10T12:33:00;3.50;;;3.00;;
15938;SDS011;8068;51.322;9.450;2023-05-10T12:35:58;4.10;;;3.67;;
15938;SDS011;8068;51.322;9.450;2023-05-10T12:38:45;5.60;;;4.37;;
15938;SDS011;8068;51.322;9.450;2023-05-10T12:41:33;3.73;;;3.43;;
15938;SDS011;8068;51.322;9.450;2023-05-10T12:44:20;5.33;;;3.90;;
15938;SDS011;8068;51.322;9.450;2023-05-10T12:47:06;4.47;;;3.50;;
15938;SDS011;8068;51.322;9.450;2023-05-10T12:49:52;6.80;;;3.83;;
15938;SDS011;8068;51.322;9.450;2023-05-10T12:52:38;3.30;;;3.00;;
15938;SDS011;8068;51.322;9.450;2023-05-10T12:55:25;4.03;;;3.50;;
15938;SDS011;8068;51.322;9.450;2023-05-10T12:58:11;4.90;;;3.13;;
15938;SDS011;8068;51.322;9.450;2023-05-10T13:01:06;5.07;;;3.00;;
15938;SDS011;8068;51.322;9.450;2023-05-10T13:03:52;7.40;;;3.20;;
15938;SDS011;8068;51.322;9.450;2023-05-10T13:06:39;5.50;;;3.30;;
15938;SDS011;8068;51.322;9.450;2023-05-10T13:09:25;5.83;;;3.73;;
15938;SDS011;8068;51.322;9.450;2023-05-10T13:12:12;4.53;;;3.50;;
15938;SDS011;8068;51.322;9.450;2023-05-10T13:14:59;2.97;;;2.60;;
15938;SDS011;8068;51.322;9.450;2023-05-10T13:17:45;4.17;;;3.77;;
15938;SDS011;8068;51.322;9.450;2023-05-10T13:20:31;5.40;;;3.30;;
15938;SDS011;8068;51.322;9.450;2023-05-10T13:23:17;3.03;;;2.83;;
15938;SDS011;8068;51.322;9.450;2023-05-10T13:26:03;3.80;;;3.60;;
15938;SDS011;8068;51.322;9.450;2023-05-10T13:28:49;3.33;;;3.10;;
15938;SDS011;8068;51.322;9.450;2023-05-10T13:31:37;3.23;;;2.90;;
15938;SDS011;8068;51.322;9.450;2023-05-10T13:34:23;3.00;;;2.80;;
15938;SDS011;8068;51.322;9.450;2023-05-10T13:37:10;2.30;;;2.20;;
15938;SDS011;8068;51.322;9.450;2023-05-10T13:39:56;3.07;;;2.87;;
15938;SDS011;8068;51.322;9.450;2023-05-10T13:42:42;3.87;;;2.40;;
15938;SDS011;8068;51.322;9.450;2023-05-10T13:45:28;3.20;;;3.00;;
15938;SDS011;8068;51.322;9.450;2023-05-10T13:48:14;3.40;;;2.27;;
15938;SDS011;8068;51.322;9.450;2023-05-10T13:51:01;2.20;;;2.10;;
15938;SDS011;8068;51.322;9.450;2023-05-10T13:53:47;3.30;;;3.00;;
15938;SDS011;8068;51.322;9.450;2023-05-10T13:56:33;3.60;;;2.50;;
15938;SDS011;8068;51.322;9.450;2023-05-10T13:59:20;3.13;;;2.90;;
15938;SDS011;8068;51.322;9.450;2023-05-10T14:02:06;2.60;;;2.40;;
15938;SDS011;8068;51.322;9.450;2023-05-10T14:04:52;3.17;;;2.97;;
15938;SDS011;8068;51.322;9.450;2023-05-10T14:07:39;3.10;;;2.90;;
15938;SDS011;8068;51.322;9.450;2023-05-10T14:10:25;3.03;;;2.80;;
15938;SDS011;8068;51.322;9.450;2023-05-10T14:13:11;3.90;;;3.37;;
15938;SDS011;8068;51.322;9.450;2023-05-10T14:15:58;3.33;;;2.93;;
15938;SDS011;8068;51.322;9.450;2023-05-10T14:18:46;3.20;;;3.00;;
15938;SDS011;8068;51.322;9.450;2023-05-10T14:21:32;3.07;;;2.87;;
15938;SDS011;8068;51.322;9.450;2023-05-10T14:24:19;2.83;;;2.53;;
15938;SDS011;8068;51.322;9.450;2023-05-10T14:27:05;2.90;;;2.70;;
15938;SDS011;8068;51.322;9.450;2023-05-10T14:29:51;3.33;;;3.13;;
15938;SDS011;8068;51.322;9.450;2023-05-10T14:32:38;3.43;;;3.23;;
15938;SDS011;8068;51.322;9.450;2023-05-10T14:35:25;3.37;;;3.07;;
15938;SDS011;8068;51.322;9.450;2023-05-10T14:38:11;3.23;;;3.13;;
15938;SDS011;8068;51.322;9.450;2023-05-10T14:40:58;3.53;;;3.33;;
15938;SDS011;8068;51.322;9.450;2023-05-10T14:43:44;2.33;;;2.17;;
15938;SDS011;8068;51.322;9.450;2023-05-10T14:46:30;2.33;;;2.00;;
15938;SDS011;8068;51.322;9.450;2023-05-10T14:49:16;5.57;;;1.90;;
15938;SDS011;8068;51.322;9.450;2023-05-10T14:52:02;4.93;;;2.77;;
15938;SDS011;8068;51.322;9.450;2023-05-10T14:54:49;6.80;;;2.90;;
15938;SDS011;8068;51.322;9.450;2023-05-10T14:57:35;2.90;;;2.20;;
15938;SDS011;8068;51.322;9.450;2023-05-10T15:00:21;2.90;;;2.63;;
15938;SDS011;8068;51.322;9.450;2023-05-10T15:03:08;3.10;;;2.73;;
15938;SDS011;8068;51.322;9.450;2023-05-10T15:05:55;3.67;;;3.37;;
15938;SDS011;8068;51.322;9.450;2023-05-10T15:08:43;4.07;;;3.80;;
15938;SDS011;8068;51.322;9.450;2023-05-10T15:11:29;3.83;;;3.50;;
15938;SDS011;8068;51.322;9.450;2023-05-10T15:14:15;3.50;;;3.20;;
15938;SDS011;8068;51.322;9.450;2023-05-10T15:17:02;3.60;;;3.30;;
15938;SDS011;8068;51.322;9.450;2023-05-10T15:19:48;3.53;;;3.33;;
15938;SDS011;8068;51.322;9.450;2023-05-10T15:22:35;4.23;;;3.63;;
15938;SDS011;8068;51.322;9.450;2023-05-10T15:25:21;7.93;;;3.60;;
15938;SDS011;8068;51.322;9.450;2023-05-10T15:28:08;7.60;;;3.73;;
15938;SDS011;8068;51.322;9.450;2023-05-10T15:30:54;3.10;;;2.83;;
15938;SDS011;8068;51.322;9.450;2023-05-10T15:33:41;3.43;;;3.23;;
15938;SDS011;8068;51.322;9.450;2023-05-10T15:36:28;3.13;;;3.03;;
15938;SDS011;8068;51.322;9.450;2023-05-10T15:39:14;3.60;;;3.40;;
15938;SDS011;8068;51.322;9.450;2023-05-10T15:42:00;3.70;;;3.40;;
15938;SDS011;8068;51.322;9.450;2023-05-10T15:44:47;3.63;;;3.27;;
15938;SDS011;8068;51.322;9.450;2023-05-10T15:47:35;3.00;;;2.80;;
15938;SDS011;8068;51.322;9.450;2023-05-10T15:50:22;3.00;;;2.70;;
15938;SDS011;8068;51.322;9.450;2023-05-10T15:53:08;3.60;;;3.30;;
15938;SDS011;8068;51.322;9.450;2023-05-10T15:55:54;4.00;;;3.70;;
15938;SDS011;8068;51.322;9.450;2023-05-10T15:58:40;5.63;;;3.13;;
15938;SDS011;8068;51.322;9.450;2023-05-10T16:01:26;5.93;;;3.10;;
15938;SDS011;8068;51.322;9.450;2023-05-10T16:04:13;3.27;;;3.07;;
15938;SDS011;8068;51.322;9.450;2023-05-10T16:06:59;2.80;;;2.60;;
15938;SDS011;8068;51.322;9.450;2023-05-10T16:09:36;2.60;;;2.50;;
15938;SDS011;8068;51.322;9.450;2023-05-10T16:12:15;3.17;;;3.00;;
15938;SDS011;8068;51.322;9.450;2023-05-10T16:14:41;2.90;;;2.80;;
15938;SDS011;8068;51.322;9.450;2023-05-10T16:17:08;2.70;;;2.50;;
15938;SDS011;8068;51.322;9.450;2023-05-10T16:19:35;2.73;;;2.53;;
15938;SDS011;8068;51.322;9.450;2023-05-10T16:22:01;2.80;;;2.60;;
15938;SDS011;8068;51.322;9.450;2023-05-10T16:24:28;2.77;;;2.67;;
15938;SDS011;8068;51.322;9.450;2023-05-10T16:26:54;3.17;;;2.93;;
15938;SDS011;8068;51.322;9.450;2023-05-10T16:29:21;8.90;;;3.47;;
15938;SDS011;8068;51.322;9.450;2023-05-10T16:31:48;3.00;;;2.90;;
15938;SDS011;8068;51.322;9.450;2023-05-10T16:34:14;3.13;;;2.83;;
15938;SDS011;8068;51.322;9.450;2023-05-10T16:36:41;4.87;;;3.13;;
15938;SDS011;8068;51.322;9.450;2023-05-10T16:39:07;7.83;;;3.27;;
15938;SDS011;8068;51.322;9.450;2023-05-10T16:41:34;4.37;;;3.40;;
15938;SDS011;8068;51.322;9.450;2023-05-10T16:44:01;4.00;;;3.10;;
15938;SDS011;8068;51.322;9.450;2023-05-10T16:46:28;2.90;;;2.53;;
15938;SDS011;8068;51.322;9.450;2023-05-10T16:48:54;3.20;;;3.10;;
15938;SDS011;8068;51.322;9.450;2023-05-10T16:51:21;3.77;;;3.57;;
15938;SDS011;8068;51.322;9.450;2023-05-10T16:53:47;4.10;;;3.90;;
15938;SDS011;8068;51.322;9.450;2023-05-10T16:56:14;4.23;;;4.03;;
15938;SDS011;8068;51.322;9.450;2023-05-10T16:58:42;4.57;;;4.10;;
15938;SDS011;8068;51.322;9.450;2023-05-10T17:01:09;3.50;;;3.30;;
15938;SDS011;8068;51.322;9.450;2023-05-10T17:03:35;4.70;;;4.00;;
15938;SDS011;8068;51.322;9.450;2023-05-10T17:06:02;4.60;;;4.20;;
15938;SDS011;8068;51.322;9.450;2023-05-10T17:08:30;4.93;;;3.90;;
15938;SDS011;8068;51.322;9.450;2023-05-10T17:10:59;4.90;;;3.90;;
15938;SDS011;8068;51.322;9.450;2023-05-10T17:13:27;5.00;;;4.60;;
15938;SDS011;8068;51.322;9.450;2023-05-10T17:15:53;5.63;;;4.90;;
15938;SDS011;8068;51.322;9.450;2023-05-10T17:18:20;5.27;;;5.00;;
15938;SDS011;8068;51.322;9.450;2023-05-10T17:20:47;5.13;;;4.70;;
15938;SDS011;8068;51.322;9.450;2023-05-10T17:23:14;5.00;;;4.70;;